createdAt,value
2023-02-28T00:03:52.440Z,25.88
2023-02-28T00:06:19.469Z,27.80
2023-02-28T00:08:46.710Z,26.85
2023-02-28T00:11:15.421Z,25.88
2023-02-28T00:13:47.629Z,27.10
2023-02-28T00:16:20.633Z,28.10
2023-02-28T00:18:51.316Z,28.10
2023-02-28T00:21:19.594Z,32.15
2023-02-28T00:23:46.628Z,28.20
2023-02-28T00:26:13.908Z,29.15
2023-02-28T00:28:45.004Z,34.00
2023-02-28T00:31:12.097Z,31.23
2023-02-28T00:33:39.110Z,32.13
2023-02-28T00:36:11.989Z,28.08
2023-02-28T00:38:39.822Z,32.75
2023-02-28T00:41:08.182Z,32.72
2023-02-28T00:43:36.820Z,28.43
2023-02-28T00:46:04.618Z,31.00
2023-02-28T00:48:32.021Z,31.02
2023-02-28T00:50:59.110Z,29.80
2023-02-28T00:53:26.384Z,31.25
2023-02-28T00:55:53.382Z,36.75
2023-02-28T00:58:20.414Z,32.78
2023-02-28T01:00:50.145Z,34.60
2023-02-28T01:03:19.352Z,34.45
2023-02-28T01:05:46.974Z,33.60
2023-02-28T01:08:15.152Z,40.88
2023-02-28T01:10:42.975Z,35.83
2023-02-28T01:13:10.866Z,36.65
2023-02-28T01:15:40.721Z,39.92
2023-02-28T01:18:07.565Z,40.83
2023-02-28T01:20:38.227Z,43.88
2023-02-28T01:23:05.229Z,39.88
2023-02-28T01:25:32.166Z,37.25
2023-02-28T01:27:59.039Z,38.88
2023-02-28T01:30:28.900Z,44.33
2023-02-28T01:32:55.906Z,45.70
2023-02-28T01:35:22.760Z,40.63
2023-02-28T01:37:49.719Z,38.53
2023-02-28T01:40:17.065Z,41.30
2023-02-28T01:42:44.086Z,42.97
2023-02-28T01:45:26.415Z,42.65
2023-02-28T01:47:57.470Z,41.90
2023-02-28T01:50:29.141Z,46.08
2023-02-28T01:53:01.208Z,43.40
2023-02-28T01:55:29.811Z,41.22
2023-02-28T01:58:03.138Z,48.33
2023-02-28T02:00:32.249Z,44.38
2023-02-28T02:03:05.147Z,39.33
2023-02-28T02:05:34.771Z,44.42
2023-02-28T02:08:09.086Z,39.67
2023-02-28T02:10:44.139Z,45.33
2023-02-28T02:13:35.202Z,43.60
2023-02-28T02:16:13.945Z,44.22
2023-02-28T02:18:53.699Z,42.30
2023-02-28T02:21:42.505Z,42.08
2023-02-28T02:24:33.038Z,39.35
2023-02-28T02:27:19.407Z,43.50
2023-02-28T02:29:58.939Z,41.08
2023-02-28T02:32:44.940Z,39.58
2023-02-28T02:35:17.944Z,44.03
2023-02-28T02:37:47.902Z,42.35
2023-02-28T02:40:21.569Z,50.58
2023-02-28T02:43:25.568Z,48.55
2023-02-28T02:46:09.466Z,53.55
2023-02-28T02:48:40.910Z,59.67
2023-02-28T02:51:14.584Z,57.08
2023-02-28T02:53:55.574Z,62.72
2023-02-28T02:56:27.509Z,64.88
2023-02-28T02:58:59.638Z,61.67
2023-02-28T03:01:30.280Z,65.57
2023-02-28T03:04:05.644Z,73.10
2023-02-28T03:06:32.821Z,74.10
2023-02-28T03:09:01.439Z,60.42
2023-02-28T03:14:11.076Z,56.90
2023-02-28T03:16:58.302Z,58.45
2023-02-28T03:19:39.132Z,61.72
2023-02-28T03:22:41.451Z,68.72
2023-02-28T03:25:14.214Z,62.47
2023-02-28T03:27:54.869Z,57.30
2023-02-28T03:30:48.808Z,48.67
2023-02-28T03:33:31.386Z,51.42
2023-02-28T03:36:03.731Z,47.92
2023-02-28T03:38:37.896Z,50.92
2023-02-28T03:41:16.547Z,50.53
2023-02-28T03:43:50.877Z,56.13
2023-02-28T03:46:23.860Z,49.00
2023-02-28T03:49:19.768Z,54.40
2023-02-28T03:51:49.311Z,47.00
2023-02-28T03:54:28.786Z,47.03
2023-02-28T03:57:06.831Z,52.03
2023-02-28T03:59:55.431Z,51.95
2023-02-28T04:02:22.360Z,60.28
2023-02-28T04:05:08.216Z,52.13
2023-02-28T04:07:35.305Z,49.22
2023-02-28T04:10:02.379Z,53.72
2023-02-28T04:12:29.950Z,47.83
2023-02-28T04:14:56.913Z,59.15
2023-02-28T04:17:23.864Z,58.97
2023-02-28T04:19:50.875Z,56.80
2023-02-28T04:22:19.323Z,56.00
2023-02-28T04:24:46.296Z,64.10
2023-02-28T04:27:13.308Z,64.47
2023-02-28T04:29:40.125Z,68.90
2023-02-28T04:32:07.100Z,54.25
2023-02-28T04:34:34.211Z,56.33
2023-02-28T04:37:12.751Z,49.60
2023-02-28T04:39:40.158Z,46.20
2023-02-28T04:42:25.826Z,51.40
2023-02-28T04:44:52.790Z,46.47
2023-02-28T04:47:19.708Z,49.83
2023-02-28T04:49:47.039Z,51.60
2023-02-28T04:52:14.320Z,50.28
2023-02-28T04:55:00.056Z,49.63
2023-02-28T04:57:26.985Z,56.70
2023-02-28T04:59:54.098Z,57.13
2023-02-28T05:02:22.201Z,57.58
2023-02-28T05:04:49.316Z,55.88
2023-02-28T05:07:16.167Z,67.38
2023-02-28T05:09:43.294Z,60.53
2023-02-28T05:12:10.713Z,60.03
2023-02-28T05:14:37.929Z,59.45
2023-02-28T05:17:04.861Z,58.78
2023-02-28T05:19:31.765Z,55.88
2023-02-28T05:21:59.129Z,65.85
2023-02-28T05:24:26.058Z,53.78
2023-02-28T05:26:54.690Z,57.05
2023-02-28T05:29:22.171Z,51.37
2023-02-28T05:31:49.279Z,50.13
2023-02-28T05:34:17.084Z,50.10
2023-02-28T05:36:44.651Z,50.95
2023-02-28T05:39:13.727Z,50.30
2023-02-28T05:41:42.772Z,49.42
2023-02-28T05:44:10.426Z,49.67
2023-02-28T05:46:37.360Z,51.25
2023-02-28T05:49:04.649Z,49.83
2023-02-28T05:51:32.020Z,50.05
2023-02-28T05:54:02.571Z,47.83
2023-02-28T05:56:30.131Z,53.33
2023-02-28T05:58:57.286Z,50.15
2023-02-28T06:01:33.149Z,51.40
2023-02-28T06:04:01.913Z,53.83
2023-02-28T06:06:30.072Z,57.55
2023-02-28T06:08:57.608Z,53.28
2023-02-28T06:11:28.792Z,56.33
2023-02-28T06:13:58.408Z,55.35
2023-02-28T06:16:26.988Z,53.40
2023-02-28T06:18:56.684Z,64.87
2023-02-28T06:21:23.772Z,56.33
2023-02-28T06:23:50.990Z,49.33
2023-02-28T06:26:18.345Z,50.70
2023-02-28T06:28:45.158Z,55.97
2023-02-28T06:31:15.848Z,49.88
2023-02-28T06:33:44.464Z,54.25
2023-02-28T06:36:13.583Z,56.80
2023-02-28T06:38:42.099Z,60.95
2023-02-28T06:41:09.465Z,60.30
2023-02-28T06:43:41.095Z,52.47
2023-02-28T06:46:11.528Z,54.58
2023-02-28T06:48:38.789Z,50.00
2023-02-28T06:51:09.554Z,55.60
2023-02-28T06:53:38.010Z,50.47
2023-02-28T06:56:07.521Z,61.38
2023-02-28T06:58:35.233Z,66.03
2023-02-28T07:01:03.007Z,60.83
2023-02-28T07:03:30.188Z,60.88
2023-02-28T07:05:57.476Z,62.13
2023-02-28T07:08:25.498Z,59.58
2023-02-28T07:10:54.292Z,63.15
2023-02-28T07:13:22.618Z,63.75
2023-02-28T07:16:04.506Z,62.53
2023-02-28T07:18:32.054Z,56.38
2023-02-28T07:20:59.695Z,56.25
2023-02-28T07:23:26.853Z,51.55
2023-02-28T07:25:53.911Z,58.63
2023-02-28T07:28:20.984Z,53.92
2023-02-28T07:30:49.202Z,50.55
2023-02-28T07:33:17.669Z,49.95
2023-02-28T07:35:45.023Z,50.75
2023-02-28T07:38:12.617Z,52.72
2023-02-28T07:40:39.661Z,51.75
2023-02-28T07:43:06.565Z,50.35
2023-02-28T07:45:35.487Z,42.05
2023-02-28T07:48:03.473Z,47.75
2023-02-28T07:50:31.873Z,42.60
2023-02-28T07:53:00.091Z,53.27
2023-02-28T07:55:27.516Z,44.67
2023-02-28T07:57:55.180Z,41.67
2023-02-28T08:00:22.757Z,43.42
2023-02-28T08:02:49.856Z,47.58
2023-02-28T08:05:18.794Z,45.72
2023-02-28T08:07:48.617Z,42.72
2023-02-28T08:10:15.902Z,43.33
2023-02-28T08:12:43.040Z,38.88
2023-02-28T08:15:10.358Z,46.50
2023-02-28T08:17:37.632Z,41.92
2023-02-28T08:20:05.417Z,41.05
2023-02-28T08:22:32.481Z,36.63
2023-02-28T08:24:59.370Z,37.15
2023-02-28T08:27:26.320Z,41.38
2023-02-28T08:29:53.137Z,42.97
2023-02-28T08:32:29.314Z,42.35
2023-02-28T08:34:57.760Z,44.58
2023-02-28T08:37:25.116Z,44.30
2023-02-28T08:39:54.845Z,44.50
2023-02-28T08:42:24.213Z,44.97
2023-02-28T08:44:51.282Z,40.63
2023-02-28T08:47:18.431Z,38.38
2023-02-28T08:49:45.334Z,44.22
2023-02-28T08:52:12.195Z,45.83
2023-02-28T08:54:39.389Z,43.28
2023-02-28T08:57:06.514Z,39.42
2023-02-28T08:59:33.850Z,43.58
2023-02-28T09:02:00.741Z,41.88
2023-02-28T09:04:27.636Z,44.58
2023-02-28T09:06:54.863Z,48.10
2023-02-28T09:09:21.886Z,46.55
2023-02-28T09:11:48.754Z,52.97
2023-02-28T09:14:15.929Z,42.47
2023-02-28T09:16:42.842Z,44.90
2023-02-28T09:19:13.119Z,43.53
2023-02-28T09:21:40.259Z,42.60
2023-02-28T09:24:07.678Z,49.85
2023-02-28T09:26:42.717Z,63.03
2023-02-28T09:29:12.072Z,64.20
2023-02-28T09:31:39.029Z,66.87
2023-02-28T09:34:06.007Z,58.85
2023-02-28T09:36:43.584Z,58.75
2023-02-28T09:39:13.075Z,55.30
2023-02-28T09:41:49.535Z,41.72
2023-02-28T09:44:24.777Z,33.13
2023-02-28T09:46:57.843Z,31.20
2023-02-28T09:49:32.629Z,31.88
2023-02-28T09:52:11.627Z,39.17
2023-02-28T09:54:39.785Z,31.40
2023-02-28T09:57:24.879Z,31.30
2023-02-28T10:00:10.563Z,29.15
2023-02-28T10:03:07.704Z,26.45
2023-02-28T10:05:43.427Z,34.35
2023-02-28T10:08:28.041Z,26.42
2023-02-28T10:11:07.365Z,27.70
2023-02-28T10:13:42.881Z,28.15
2023-02-28T10:16:15.796Z,27.58
2023-02-28T10:18:51.994Z,34.47
2023-02-28T10:21:47.271Z,27.17
2023-02-28T10:24:38.428Z,23.02
2023-02-28T10:27:17.195Z,34.47
2023-02-28T10:29:49.131Z,30.20
2023-02-28T10:32:18.906Z,29.58
2023-02-28T10:34:52.006Z,25.65
2023-02-28T10:37:20.847Z,28.08
2023-02-28T10:39:48.431Z,28.02
2023-02-28T10:42:30.055Z,29.40
2023-02-28T10:45:17.715Z,31.30
2023-02-28T10:47:54.912Z,25.23
2023-02-28T10:50:52.079Z,24.20
2023-02-28T10:53:28.412Z,27.40
2023-02-28T10:56:14.948Z,26.65
2023-02-28T10:58:54.235Z,27.95
2023-02-28T11:03:53.970Z,25.40
2023-02-28T11:06:24.530Z,27.80
2023-02-28T11:08:57.865Z,27.13
2023-02-28T11:11:28.967Z,30.45
2023-02-28T11:14:07.006Z,25.00
2023-02-28T11:16:36.898Z,30.00
2023-02-28T11:19:06.305Z,27.33
2023-02-28T11:21:37.754Z,26.00
2023-02-28T11:24:43.188Z,26.90
2023-02-28T11:27:31.911Z,29.77
2023-02-28T11:30:00.818Z,26.98
2023-02-28T11:32:31.455Z,25.88
2023-02-28T11:35:03.614Z,25.67
2023-02-28T11:37:32.374Z,23.98
2023-02-28T11:39:59.317Z,25.90
2023-02-28T11:42:44.431Z,25.23
2023-02-28T11:45:23.891Z,31.23
2023-02-28T11:48:09.011Z,33.83
2023-02-28T11:50:54.819Z,25.67
2023-02-28T11:53:43.381Z,25.30
2023-02-28T11:56:19.703Z,26.63
2023-02-28T11:58:55.610Z,31.48
2023-02-28T12:01:25.937Z,30.48
2023-02-28T12:04:48.618Z,28.70
2023-02-28T12:07:36.827Z,26.92
2023-02-28T12:10:44.981Z,31.80
2023-02-28T12:13:43.295Z,23.80
2023-02-28T12:16:38.116Z,31.15
2023-02-28T12:19:29.542Z,27.77
2023-02-28T12:22:15.150Z,24.70
2023-02-28T12:25:08.426Z,35.33
2023-02-28T12:27:42.613Z,26.98
2023-02-28T12:30:22.140Z,26.75
2023-02-28T12:33:14.936Z,27.88
2023-02-28T12:35:58.064Z,36.70
2023-02-28T12:38:48.600Z,29.10
2023-02-28T12:41:41.727Z,26.00
2023-02-28T12:44:28.911Z,38.05
2023-02-28T12:47:00.698Z,22.70
2023-02-28T12:49:34.059Z,30.00
2023-02-28T12:52:03.945Z,25.70
2023-02-28T12:54:45.148Z,29.67
2023-02-28T12:57:15.121Z,26.50
2023-02-28T12:59:59.466Z,29.60
2023-02-28T13:03:07.804Z,33.28
2023-02-28T13:06:08.655Z,25.52
2023-02-28T13:09:10.639Z,29.17
2023-02-28T13:11:43.099Z,25.17
2023-02-28T13:14:28.775Z,28.60
2023-02-28T13:17:15.923Z,33.00
2023-02-28T13:19:46.859Z,27.30
2023-02-28T13:22:41.754Z,28.17
2023-02-28T13:25:23.947Z,29.45
2023-02-28T13:27:57.252Z,27.48
2023-02-28T13:30:52.789Z,28.27
2023-02-28T13:33:30.451Z,28.77
2023-02-28T13:36:09.494Z,26.77
2023-02-28T13:38:48.854Z,30.17
2023-02-28T13:44:06.990Z,28.13
2023-02-28T13:46:37.285Z,22.55
2023-02-28T13:49:37.867Z,25.67
2023-02-28T13:52:20.278Z,25.27
2023-02-28T13:55:00.043Z,24.67
2023-02-28T13:57:56.130Z,28.85
2023-02-28T14:00:38.329Z,26.75
2023-02-28T14:03:37.794Z,25.42
2023-02-28T14:06:10.848Z,23.20
2023-02-28T14:08:38.477Z,26.85
2023-02-28T14:11:26.255Z,27.83
2023-02-28T14:13:53.609Z,29.33
2023-02-28T14:16:46.546Z,24.23
2023-02-28T14:19:28.658Z,25.00
2023-02-28T14:22:13.799Z,27.23
2023-02-28T14:24:43.342Z,27.05
2023-02-28T14:27:27.490Z,28.90
2023-02-28T14:30:08.161Z,23.70
2023-02-28T14:32:54.089Z,29.27
2023-02-28T14:35:55.815Z,26.23
2023-02-28T14:38:34.065Z,26.75
2023-02-28T14:41:05.863Z,26.97
2023-02-28T14:43:33.146Z,25.58
2023-02-28T14:46:05.369Z,24.33
2023-02-28T14:48:32.432Z,28.05
2023-02-28T14:51:01.659Z,23.88
2023-02-28T14:53:31.561Z,25.50
2023-02-28T14:55:59.027Z,26.25
2023-02-28T14:58:33.803Z,24.88
2023-02-28T15:01:03.476Z,25.45
2023-02-28T15:06:06.165Z,29.80
2023-02-28T15:08:37.243Z,21.30
2023-02-28T15:11:23.260Z,27.15
2023-02-28T15:13:53.340Z,26.63
2023-02-28T15:16:20.189Z,23.90
2023-02-28T15:18:57.076Z,26.23
2023-02-28T15:21:35.016Z,23.77
2023-02-28T15:24:07.429Z,28.75
2023-02-28T15:26:44.120Z,29.52
2023-02-28T15:29:24.435Z,22.30
2023-02-28T15:32:06.408Z,20.30
2023-02-28T15:34:43.742Z,20.42
2023-02-28T15:37:38.997Z,24.38
2023-02-28T15:40:17.564Z,24.30
2023-02-28T15:43:08.560Z,29.77
2023-02-28T15:45:42.373Z,25.50
2023-02-28T15:48:20.463Z,20.75
2023-02-28T15:50:52.605Z,21.60
2023-02-28T15:53:31.221Z,18.60
2023-02-28T15:56:02.808Z,23.13
2023-02-28T15:58:30.319Z,20.15
2023-02-28T16:01:17.892Z,20.35
2023-02-28T16:03:48.663Z,19.77
2023-02-28T16:06:34.473Z,19.67
2023-02-28T16:09:01.952Z,19.70
2023-02-28T16:11:29.389Z,18.83
2023-02-28T16:13:56.585Z,21.83
2023-02-28T16:16:25.775Z,25.25
2023-02-28T16:21:20.109Z,19.15
2023-02-28T16:23:46.955Z,20.15
2023-02-28T16:26:23.126Z,21.25
2023-02-28T16:28:50.971Z,22.05
2023-02-28T16:31:18.963Z,18.15
2023-02-28T16:33:46.797Z,18.08
2023-02-28T16:36:22.901Z,21.13
2023-02-28T16:38:51.483Z,18.70
2023-02-28T16:41:21.343Z,17.77
2023-02-28T16:43:50.216Z,20.48
2023-02-28T16:46:17.821Z,19.48
2023-02-28T16:48:46.586Z,16.80
2023-02-28T16:51:14.928Z,16.10
2023-02-28T16:53:42.941Z,19.27
2023-02-28T16:56:30.797Z,16.27
2023-02-28T16:59:02.823Z,20.08
2023-02-28T17:01:30.300Z,16.38
2023-02-28T17:03:57.809Z,23.98
2023-02-28T17:06:29.337Z,15.77
2023-02-28T17:08:58.766Z,15.68
2023-02-28T17:11:27.033Z,15.15
2023-02-28T17:13:54.988Z,15.35
2023-02-28T17:16:33.841Z,17.10
2023-02-28T17:19:03.640Z,18.38
2023-02-28T17:21:32.067Z,15.50
2023-02-28T17:23:59.426Z,17.57
2023-02-28T17:26:26.993Z,16.00
2023-02-28T17:28:56.814Z,13.25
2023-02-28T17:31:24.950Z,20.20
2023-02-28T17:33:52.466Z,13.00
2023-02-28T17:36:25.755Z,11.00
2023-02-28T17:38:54.353Z,10.98
2023-02-28T17:41:21.218Z,11.73
2023-02-28T17:43:48.484Z,12.80
2023-02-28T17:46:21.893Z,13.55
2023-02-28T17:48:50.182Z,10.82
2023-02-28T17:51:18.636Z,12.05
2023-02-28T17:53:46.007Z,11.57
2023-02-28T17:56:16.117Z,10.73
2023-02-28T17:58:43.193Z,11.25
2023-02-28T18:01:10.685Z,10.63
2023-02-28T18:03:37.723Z,8.93
2023-02-28T18:06:06.231Z,13.82
2023-02-28T18:08:35.826Z,12.23
2023-02-28T18:11:03.228Z,11.60
2023-02-28T18:13:30.385Z,11.80
2023-02-28T18:15:57.393Z,9.90
2023-02-28T18:18:24.301Z,11.18
2023-02-28T18:20:53.378Z,13.02
2023-02-28T18:23:21.578Z,11.57
2023-02-28T18:25:48.608Z,12.25
2023-02-28T18:28:15.566Z,12.45
2023-02-28T18:30:42.424Z,13.50
2023-02-28T18:33:09.478Z,10.52
2023-02-28T18:35:36.578Z,11.43
2023-02-28T18:38:11.533Z,11.38
2023-02-28T18:40:39.053Z,11.63
2023-02-28T18:43:06.300Z,12.48
2023-02-28T18:45:36.764Z,11.32
2023-02-28T18:48:03.747Z,11.25
2023-02-28T18:50:31.082Z,11.07
2023-02-28T18:52:59.628Z,12.40
2023-02-28T18:55:27.906Z,13.85
2023-02-28T18:57:54.977Z,12.88
2023-02-28T19:00:22.879Z,12.73
2023-02-28T19:02:50.857Z,11.82
2023-02-28T19:05:19.817Z,12.85
2023-02-28T19:07:46.822Z,11.77
2023-02-28T19:10:14.227Z,14.00
2023-02-28T19:12:43.277Z,12.48
2023-02-28T19:15:11.711Z,15.23
2023-02-28T19:17:39.673Z,14.27
2023-02-28T19:20:08.142Z,13.02
2023-02-28T19:22:37.053Z,13.00
2023-02-28T19:25:05.726Z,14.50
2023-02-28T19:27:32.833Z,16.67
2023-02-28T19:30:00.234Z,12.85
2023-02-28T19:32:28.030Z,14.48
2023-02-28T19:34:55.177Z,14.75
2023-02-28T19:37:22.100Z,16.42
2023-02-28T19:39:49.119Z,14.25
2023-02-28T19:42:18.004Z,14.85
2023-02-28T19:44:45.656Z,13.75
2023-02-28T19:47:13.292Z,14.73
2023-02-28T19:49:40.940Z,13.73
2023-02-28T19:52:11.708Z,14.13
2023-02-28T19:54:42.319Z,15.63
2023-02-28T19:57:09.486Z,14.05
2023-02-28T19:59:39.887Z,13.73
2023-02-28T20:02:17.466Z,14.07
2023-02-28T20:04:48.855Z,13.75
2023-02-28T20:07:17.772Z,16.08
2023-02-28T20:09:45.611Z,15.50
2023-02-28T20:12:23.388Z,14.57
2023-02-28T20:14:51.203Z,16.88
2023-02-28T20:17:19.107Z,17.38
2023-02-28T20:19:46.290Z,17.38
2023-02-28T20:22:13.355Z,16.90
2023-02-28T20:24:40.407Z,17.95
2023-02-28T20:27:07.868Z,17.05
2023-02-28T20:29:36.038Z,36.72
2023-02-28T20:32:03.158Z,18.63
2023-02-28T20:34:30.116Z,18.08
2023-02-28T20:36:58.936Z,22.40
2023-02-28T20:39:26.205Z,17.83
2023-02-28T20:41:53.244Z,22.63
2023-02-28T20:44:20.381Z,20.48
2023-02-28T20:46:47.515Z,18.77
2023-02-28T20:49:15.901Z,20.85
2023-02-28T20:51:42.942Z,23.13
2023-02-28T20:54:11.815Z,22.40
2023-02-28T20:56:38.956Z,25.65
2023-02-28T20:59:05.903Z,17.85
2023-02-28T21:01:33.347Z,17.85
2023-02-28T21:04:02.842Z,16.63
2023-02-28T21:08:59.666Z,16.27
2023-02-28T21:11:31.530Z,17.00
2023-02-28T21:14:00.970Z,15.57
2023-02-28T21:16:29.725Z,16.80
2023-02-28T21:19:03.979Z,16.75
2023-02-28T21:21:36.624Z,14.15
2023-02-28T21:24:04.002Z,15.93
2023-02-28T21:26:31.542Z,18.23
2023-02-28T21:29:00.919Z,17.15
2023-02-28T21:31:31.268Z,15.20
2023-02-28T21:34:00.164Z,13.93
2023-02-28T21:36:35.451Z,17.15
2023-02-28T21:39:07.766Z,15.88
2023-02-28T21:41:35.106Z,15.30
2023-02-28T21:44:02.065Z,12.45
2023-02-28T21:46:34.517Z,15.20
2023-02-28T21:49:02.035Z,14.55
2023-02-28T21:51:31.528Z,15.82
2023-02-28T21:53:59.928Z,15.00
2023-02-28T21:56:32.852Z,14.18
2023-02-28T21:59:00.985Z,16.73
2023-02-28T22:01:37.509Z,14.95
2023-02-28T22:04:07.278Z,14.38
2023-02-28T22:06:37.144Z,15.63
2023-02-28T22:09:07.396Z,14.70
2023-02-28T22:11:36.048Z,14.38
2023-02-28T22:14:03.080Z,16.13
2023-02-28T22:16:37.906Z,19.48
2023-02-28T22:19:15.401Z,14.25
2023-02-28T22:21:42.763Z,16.15
2023-02-28T22:24:10.872Z,17.13
2023-02-28T22:26:38.263Z,16.02
2023-02-28T22:29:05.201Z,19.85
2023-02-28T22:31:34.584Z,19.70
2023-02-28T22:36:30.479Z,18.17
2023-02-28T22:38:58.613Z,15.10
2023-02-28T22:41:26.720Z,16.92
2023-02-28T22:43:59.026Z,16.73
2023-02-28T22:46:28.480Z,16.33
2023-02-28T22:48:55.886Z,19.15
2023-02-28T22:51:25.456Z,12.20
2023-02-28T22:53:54.292Z,13.20
2023-02-28T22:56:24.471Z,14.27
2023-02-28T22:58:57.259Z,13.45
2023-02-28T23:01:26.580Z,13.05
2023-02-28T23:06:23.672Z,11.20
2023-02-28T23:08:52.891Z,10.70
2023-02-28T23:11:26.156Z,11.30
2023-02-28T23:13:59.672Z,9.27
2023-02-28T23:16:26.672Z,9.75
2023-02-28T23:18:53.574Z,10.82
2023-02-28T23:21:20.768Z,10.32
2023-02-28T23:23:47.659Z,10.68
2023-02-28T23:26:14.691Z,9.15
2023-02-28T23:28:41.611Z,12.40
2023-02-28T23:31:08.610Z,9.90
2023-02-28T23:33:35.507Z,9.60
2023-02-28T23:36:14.361Z,8.18
2023-02-28T23:38:43.088Z,8.18
2023-02-28T23:41:11.578Z,8.82
2023-02-28T23:43:40.722Z,8.95
2023-02-28T23:46:08.743Z,8.52
2023-02-28T23:48:36.107Z,10.35
2023-02-28T23:51:09.438Z,9.10
2023-02-28T23:53:42.400Z,10.88
2023-02-28T23:56:14.741Z,9.82
2023-02-28T23:58:43.784Z,10.40
